Time;durP1;ratioP1;P1;durP2;ratioP2;P2;SDS_P1;SDS_P2;PMS_P1;PMS_P2;Temp;Humidity;BMP_temperature;BMP_pressure;BME280_temperature;BME280_humidity;BME280_pressure;Samples;Min_cycle;Max_cycle;Signal;HPM_P1;HPM_P2
2022/01/11 00:00:35;;;;;;;;;;;0.50;99.90;;;;;;2088666;28;20400;-69
2022/01/11 00:01:41;;;;;;;;;;;0.50;99.90;;;;;;2085391;28;19971;-69
2022/01/11 00:02:44;;;;;;;;;;;0.50;99.90;;;;;;2084927;28;19909;-69
2022/01/11 00:03:45;;;;;;;;;;;0.50;99.90;;;;;;2088363;28;19936;-69
2022/01/11 00:04:46;;;;;;;;;;;0.50;99.90;;;;;;2088370;28;19955;-69
2022/01/11 00:05:55;;;;;;;;;;;0.50;99.90;;;;;;2088869;28;19966;-69
2022/01/11 00:06:57;;;;;;;;;;;0.50;99.90;;;;;;2088504;28;19919;-69
2022/01/11 00:07:58;;;;;;;;;;;0.40;99.90;;;;;;2086832;28;19939;-69
2022/01/11 00:09:07;;;;;;;;;;;0.40;99.90;;;;;;2080421;28;19921;-69
2022/01/11 00:10:09;;;;;;;;;;;0.40;99.90;;;;;;2080688;28;20270;-69
2022/01/11 00:11:09;;;;;;;;;;;0.40;99.90;;;;;;2081300;28;20385;-69
2022/01/11 00:12:10;;;;;;;;;;;0.40;99.90;;;;;;2080696;28;19909;-69
2022/01/11 00:13:11;;;;;;;;;;;0.40;99.90;;;;;;2086803;28;19909;-69
2022/01/11 00:14:11;;;;;;;;;;;0.40;99.90;;;;;;2088702;28;19913;-69
2022/01/11 00:15:12;;;;;;;;;;;0.40;99.90;;;;;;2088583;28;20281;-69
2022/01/11 00:16:15;;;;;;;;;;;0.40;99.90;;;;;;2088691;28;20001;-69
2022/01/11 00:17:16;;;;;;;;;;;0.40;99.90;;;;;;2088422;28;19908;-69
2022/01/11 00:18:16;;;;;;;;;;;0.40;99.90;;;;;;2087628;28;19912;-69
2022/01/11 00:19:17;;;;;;;;;;;0.30;99.90;;;;;;2087805;28;19909;-69
2022/01/11 00:20:19;;;;;;;;;;;0.30;99.90;;;;;;2088751;28;20353;-69
2022/01/11 00:21:20;;;;;;;;;;;0.30;99.90;;;;;;2085285;28;19917;-69
2022/01/11 00:22:26;;;;;;;;;;;0.40;99.90;;;;;;2084891;28;20292;-69
2022/01/11 00:24:32;;;;;;;;;;;0.30;99.90;;;;;;2089528;28;20388;-70
2022/01/11 00:25:33;;;;;;;;;;;0.30;99.90;;;;;;2090057;28;19913;-69
2022/01/11 00:26:34;;;;;;;;;;;0.30;99.90;;;;;;2090448;28;20023;-69
2022/01/11 00:27:34;;;;;;;;;;;0.30;99.90;;;;;;2089668;28;19909;-69
2022/01/11 00:28:35;;;;;;;;;;;0.30;99.90;;;;;;2090216;28;20364;-69
2022/01/11 00:29:40;;;;;;;;;;;0.30;99.90;;;;;;2089646;28;19908;-69
2022/01/11 00:30:43;;;;;;;;;;;0.30;99.90;;;;;;2089778;28;19909;-69
2022/01/11 00:31:45;;;;;;;;;;;0.30;99.90;;;;;;2083009;28;19913;-69
2022/01/11 00:32:51;;;;;;;;;;;0.30;99.90;;;;;;2089694;28;19913;-69
2022/01/11 00:33:53;;;;;;;;;;;0.30;99.90;;;;;;2089466;28;19912;-69
2022/01/11 00:34:55;;;;;;;;;;;0.20;99.90;;;;;;2090157;28;19912;-69
2022/01/11 00:36:00;;;;;;;;;;;0.30;99.90;;;;;;2087602;28;19924;-69
2022/01/11 00:37:00;;;;;;;;;;;0.20;99.90;;;;;;2089805;28;20973;-69
2022/01/11 00:38:01;;;;;;;;;;;0.20;99.90;;;;;;2089834;28;19913;-69
2022/01/11 00:39:01;;;;;;;;;;;0.20;99.90;;;;;;2089807;28;20000;-69
2022/01/11 00:40:04;;;;;;;;;;;0.20;99.90;;;;;;2089898;28;20015;-69
2022/01/11 00:41:08;;;;;;;;;;;0.20;99.90;;;;;;2090070;28;19909;-69
2022/01/11 00:42:09;;;;;;;;;;;0.20;99.90;;;;;;2087755;28;19928;-69
2022/01/11 00:43:10;;;;;;;;;;;0.20;99.90;;;;;;2090305;28;20376;-69
2022/01/11 00:44:11;;;;;;;;;;;0.20;99.90;;;;;;2089144;28;20323;-70
2022/01/11 00:45:12;;;;;;;;;;;0.20;99.90;;;;;;2082658;28;19909;-69
2022/01/11 00:46:14;;;;;;;;;;;0.20;99.90;;;;;;2089501;28;20323;-69
2022/01/11 00:47:15;;;;;;;;;;;0.20;99.90;;;;;;2089564;28;19996;-69
2022/01/11 00:48:16;;;;;;;;;;;0.20;99.90;;;;;;2089796;28;19917;-69
2022/01/11 00:49:16;;;;;;;;;;;0.20;99.90;;;;;;2089975;28;19920;-69
2022/01/11 00:50:18;;;;;;;;;;;0.20;99.90;;;;;;2088121;28;19956;-69
2022/01/11 00:51:18;;;;;;;;;;;0.20;99.90;;;;;;2082195;28;19920;-69
2022/01/11 00:52:19;;;;;;;;;;;0.20;99.90;;;;;;2081843;28;19913;-69
2022/01/11 00:53:19;;;;;;;;;;;0.20;99.90;;;;;;2084899;28;19909;-69
2022/01/11 00:54:20;;;;;;;;;;;0.20;99.90;;;;;;2089979;28;20004;-69
2022/01/11 00:55:20;;;;;;;;;;;0.10;99.90;;;;;;2090060;28;20323;-69
2022/01/11 00:56:21;;;;;;;;;;;0.10;99.90;;;;;;2089084;28;19919;-69
2022/01/11 00:57:22;;;;;;;;;;;0.10;99.90;;;;;;2089335;28;19925;-69
2022/01/11 00:58:22;;;;;;;;;;;0.10;99.90;;;;;;2088903;28;19948;-69
2022/01/11 00:59:23;;;;;;;;;;;0.10;99.90;;;;;;2089076;28;19913;-69
2022/01/11 01:00:23;;;;;;;;;;;0.10;99.90;;;;;;2089697;28;20013;-69
2022/01/11 01:01:24;;;;;;;;;;;0.10;99.90;;;;;;2088431;28;19913;-69
2022/01/11 01:02:24;;;;;;;;;;;0.00;99.90;;;;;;2085025;28;20401;-69
2022/01/11 01:03:25;;;;;;;;;;;0.00;99.90;;;;;;2089490;28;19936;-69
2022/01/11 01:04:25;;;;;;;;;;;0.00;99.90;;;;;;2089630;28;19996;-69
2022/01/11 01:05:27;;;;;;;;;;;0.00;99.90;;;;;;2089529;28;19919;-69
2022/01/11 01:06:27;;;;;;;;;;;0.00;99.90;;;;;;2089776;28;20017;-69
2022/01/11 01:07:28;;;;;;;;;;;0.00;99.90;;;;;;2089623;28;19963;-69
2022/01/11 01:08:28;;;;;;;;;;;0.00;99.90;;;;;;2089718;28;20383;-69
2022/01/11 01:09:37;;;;;;;;;;;0.00;99.90;;;;;;2089691;28;19959;-69
2022/01/11 01:10:40;;;;;;;;;;;0.00;99.90;;;;;;2089803;28;19909;-69
2022/01/11 01:11:43;;;;;;;;;;;0.00;99.90;;;;;;2095506;28;20412;-69
2022/01/11 01:12:43;;;;;;;;;;;0.00;99.90;;;;;;2096846;28;19908;-69
2022/01/11 01:13:44;;;;;;;;;;;0.00;99.90;;;;;;2088858;28;19963;-69
2022/01/11 01:14:44;;;;;;;;;;;0.00;99.90;;;;;;2094915;28;19999;-69
2022/01/11 01:15:47;;;;;;;;;;;0.00;99.90;;;;;;2096671;28;19915;-69
2022/01/11 01:16:47;;;;;;;;;;;0.00;99.90;;;;;;2089853;28;19913;-69
2022/01/11 01:17:48;;;;;;;;;;;0.00;99.90;;;;;;2088884;28;20008;-69
2022/01/11 01:18:49;;;;;;;;;;;0.00;99.90;;;;;;2088419;28;20361;-69
2022/01/11 01:19:50;;;;;;;;;;;0.00;99.90;;;;;;2083800;28;20348;-69
2022/01/11 01:20:51;;;;;;;;;;;0.00;99.90;;;;;;2087610;28;19909;-69
2022/01/11 01:21:53;;;;;;;;;;;0.00;99.90;;;;;;2093674;28;19927;-69
2022/01/11 01:22:53;;;;;;;;;;;0.00;99.90;;;;;;2097522;28;19958;-69
2022/01/11 01:23:54;;;;;;;;;;;0.00;99.90;;;;;;2095751;28;19912;-69
2022/01/11 01:24:54;;;;;;;;;;;-0.10;99.90;;;;;;2089575;28;20347;-69
2022/01/11 01:25:55;;;;;;;;;;;-0.10;99.90;;;;;;2089833;28;20039;-69
2022/01/11 01:26:55;;;;;;;;;;;0.00;99.90;;;;;;2089615;28;19912;-69
2022/01/11 01:27:56;;;;;;;;;;;-0.10;99.90;;;;;;2089357;28;20393;-69
2022/01/11 01:28:59;;;;;;;;;;;-0.10;99.90;;;;;;2089590;28;19908;-69
2022/01/11 01:29:59;;;;;;;;;;;-0.10;99.90;;;;;;2089641;28;19909;-69
2022/01/11 01:31:01;;;;;;;;;;;-0.10;99.90;;;;;;2089624;28;20716;-69
2022/01/11 01:32:02;;;;;;;;;;;-0.10;99.90;;;;;;2083989;28;19913;-69
2022/01/11 01:33:03;;;;;;;;;;;-0.10;99.90;;;;;;2089293;28;19913;-69
2022/01/11 01:34:03;;;;;;;;;;;-0.10;99.90;;;;;;2088674;28;20357;-69
2022/01/11 01:35:05;;;;;;;;;;;-0.10;99.90;;;;;;2089268;28;20284;-69
2022/01/11 01:36:11;;;;;;;;;;;-0.10;99.90;;;;;;2081410;28;19909;-69
2022/01/11 01:37:12;;;;;;;;;;;-0.20;99.90;;;;;;2085928;28;19912;-69
2022/01/11 01:38:12;;;;;;;;;;;-0.20;99.90;;;;;;2089410;28;20011;-69
2022/01/11 01:39:12;;;;;;;;;;;-0.20;99.90;;;;;;2089879;28;19912;-69
2022/01/11 01:40:16;;;;;;;;;;;-0.20;99.90;;;;;;2089347;28;19916;-69
2022/01/11 01:41:19;;;;;;;;;;;-0.20;99.90;;;;;;2089614;28;20055;-70
2022/01/11 01:42:25;;;;;;;;;;;-0.20;99.90;;;;;;2089261;28;19912;-69
2022/01/11 01:43:26;;;;;;;;;;;-0.20;99.90;;;;;;2089122;28;19959;-69
2022/01/11 01:44:26;;;;;;;;;;;-0.20;99.90;;;;;;2089241;28;19916;-69
2022/01/11 01:45:27;;;;;;;;;;;-0.20;99.90;;;;;;2089753;28;19996;-69
2022/01/11 01:46:28;;;;;;;;;;;-0.20;99.90;;;;;;2088766;28;20423;-69
2022/01/11 01:47:28;;;;;;;;;;;-0.20;99.90;;;;;;2085427;28;20016;-69
2022/01/11 01:48:29;;;;;;;;;;;-0.20;99.90;;;;;;2085511;28;19920;-69
2022/01/11 01:49:32;;;;;;;;;;;-0.20;99.90;;;;;;2089466;28;19995;-69
2022/01/11 01:50:33;;;;;;;;;;;-0.30;99.90;;;;;;2089297;28;19913;-69
2022/01/11 01:51:34;;;;;;;;;;;-0.30;99.90;;;;;;2089260;28;19909;-69
2022/01/11 01:52:34;;;;;;;;;;;-0.20;99.90;;;;;;2089443;28;20419;-70
2022/01/11 01:53:37;;;;;;;;;;;-0.30;99.90;;;;;;2089236;28;19913;-69
2022/01/11 01:54:37;;;;;;;;;;;-0.20;99.90;;;;;;2089323;28;19913;-69
2022/01/11 01:55:39;;;;;;;;;;;-0.30;99.90;;;;;;2089557;28;19909;-69
2022/01/11 01:56:40;;;;;;;;;;;-0.20;99.90;;;;;;2089226;28;19948;-69
2022/01/11 01:57:40;;;;;;;;;;;-0.20;99.90;;;;;;2089467;28;19909;-69
2022/01/11 01:58:42;;;;;;;;;;;-0.20;99.90;;;;;;2089062;28;19925;-69
2022/01/11 01:59:43;;;;;;;;;;;-0.20;99.90;;;;;;2084263;28;20008;-69
2022/01/11 02:00:50;;;;;;;;;;;-0.20;99.90;;;;;;2089169;28;19909;-69
2022/01/11 02:01:51;;;;;;;;;;;-0.20;99.90;;;;;;2088743;28;20379;-69
2022/01/11 02:03:01;;;;;;;;;;;-0.20;99.90;;;;;;2089104;28;19963;-69
2022/01/11 02:04:02;;;;;;;;;;;-0.20;99.90;;;;;;2088921;28;20364;-69
2022/01/11 02:05:05;;;;;;;;;;;-0.20;99.90;;;;;;2088994;28;20291;-69
2022/01/11 02:06:07;;;;;;;;;;;-0.20;99.90;;;;;;2090869;28;20276;-69
2022/01/11 02:07:08;;;;;;;;;;;-0.20;99.90;;;;;;2085686;28;19912;-69
2022/01/11 02:08:09;;;;;;;;;;;-0.20;99.90;;;;;;2093650;28;19917;-69
2022/01/11 02:09:10;;;;;;;;;;;-0.20;99.90;;;;;;2090725;28;19916;-69
2022/01/11 02:10:11;;;;;;;;;;;-0.20;99.90;;;;;;2090887;28;19916;-69
2022/01/11 02:11:14;;;;;;;;;;;-0.20;99.90;;;;;;2090678;28;19909;-69
2022/01/11 02:12:14;;;;;;;;;;;-0.20;99.90;;;;;;2090864;28;19915;-69
2022/01/11 02:13:15;;;;;;;;;;;-0.20;99.90;;;;;;2090575;28;19916;-69
2022/01/11 02:14:16;;;;;;;;;;;-0.20;99.90;;;;;;2090549;28;19916;-69
2022/01/11 02:15:16;;;;;;;;;;;-0.20;99.90;;;;;;2090551;28;19916;-69
2022/01/11 02:16:20;;;;;;;;;;;-0.20;99.90;;;;;;2090242;28;20253;-69
2022/01/11 02:17:21;;;;;;;;;;;-0.20;99.90;;;;;;2090591;28;19944;-69
2022/01/11 02:18:23;;;;;;;;;;;-0.20;99.90;;;;;;2090094;28;19908;-69
2022/01/11 02:19:24;;;;;;;;;;;-0.20;99.90;;;;;;2090087;28;19909;-69
2022/01/11 02:20:24;;;;;;;;;;;-0.20;99.90;;;;;;2090610;28;19909;-69
2022/01/11 02:21:25;;;;;;;;;;;-0.20;99.90;;;;;;2090788;28;19912;-69
2022/01/11 02:22:25;;;;;;;;;;;-0.20;99.90;;;;;;2090557;28;19916;-69
2022/01/11 02:23:27;;;;;;;;;;;-0.20;99.90;;;;;;2090678;28;19915;-69
2022/01/11 02:24:32;;;;;;;;;;;-0.20;99.90;;;;;;2090572;28;19908;-69
2022/01/11 02:25:32;;;;;;;;;;;-0.20;99.90;;;;;;2090690;28;19935;-69
2022/01/11 02:26:32;;;;;;;;;;;-0.20;99.90;;;;;;2088263;28;19934;-69
2022/01/11 02:27:33;;;;;;;;;;;-0.20;99.90;;;;;;2087176;28;19974;-69
2022/01/11 02:28:33;;;;;;;;;;;-0.20;99.90;;;;;;2090560;28;20323;-69
2022/01/11 02:29:34;;;;;;;;;;;-0.20;99.90;;;;;;2090617;28;19909;-69
2022/01/11 02:30:35;;;;;;;;;;;-0.20;99.90;;;;;;2088287;28;19909;-69
2022/01/11 02:31:37;;;;;;;;;;;-0.20;99.90;;;;;;2082639;28;19949;-69
2022/01/11 02:32:47;;;;;;;;;;;-0.30;99.90;;;;;;2088691;28;19909;-69
2022/01/11 02:33:49;;;;;;;;;;;-0.30;99.90;;;;;;2090664;28;19956;-69
2022/01/11 02:34:49;;;;;;;;;;;-0.30;99.90;;;;;;2090593;28;19913;-69
2022/01/11 02:35:50;;;;;;;;;;;-0.30;99.90;;;;;;2090590;28;19909;-69
2022/01/11 02:36:51;;;;;;;;;;;-0.30;99.90;;;;;;2090223;28;19909;-69
2022/01/11 02:37:51;;;;;;;;;;;-0.30;99.90;;;;;;2088766;28;20001;-69
2022/01/11 02:38:53;;;;;;;;;;;-0.30;99.90;;;;;;2090468;28;20292;-69
2022/01/11 02:39:53;;;;;;;;;;;-0.30;99.90;;;;;;2090575;28;20273;-69
2022/01/11 02:40:54;;;;;;;;;;;-0.30;99.90;;;;;;2090608;28;19974;-69
2022/01/11 02:41:56;;;;;;;;;;;-0.40;99.90;;;;;;2086955;28;19992;-69
2022/01/11 02:42:57;;;;;;;;;;;-0.40;99.90;;;;;;2090450;28;19915;-70
2022/01/11 02:43:58;;;;;;;;;;;-0.40;99.90;;;;;;2090287;28;19909;-69
2022/01/11 02:44:58;;;;;;;;;;;-0.40;99.90;;;;;;2083984;28;19921;-69
2022/01/11 02:46:00;;;;;;;;;;;-0.40;99.90;;;;;;2090480;28;19952;-69
2022/01/11 02:47:00;;;;;;;;;;;-0.40;99.90;;;;;;2088942;28;19935;-69
2022/01/11 02:48:01;;;;;;;;;;;-0.40;99.90;;;;;;2090364;28;19975;-69
2022/01/11 02:49:01;;;;;;;;;;;-0.40;99.90;;;;;;2090435;28;19955;-69
2022/01/11 02:50:02;;;;;;;;;;;-0.40;99.90;;;;;;2090461;28;19909;-69
2022/01/11 02:51:03;;;;;;;;;;;-0.40;99.90;;;;;;2090488;28;19908;-69
2022/01/11 02:52:04;;;;;;;;;;;-0.40;99.90;;;;;;2090544;28;19930;-69
2022/01/11 02:53:04;;;;;;;;;;;-0.40;99.90;;;;;;2090297;28;19913;-69
2022/01/11 02:54:05;;;;;;;;;;;-0.40;99.90;;;;;;2090301;28;19909;-69
2022/01/11 02:55:08;;;;;;;;;;;-0.40;99.90;;;;;;2090531;28;19913;-69
2022/01/11 02:56:08;;;;;;;;;;;-0.40;99.90;;;;;;2086174;28;19991;-69
2022/01/11 02:57:09;;;;;;;;;;;-0.40;99.90;;;;;;2089562;28;19924;-69
2022/01/11 02:58:10;;;;;;;;;;;-0.40;99.90;;;;;;2090077;28;19916;-69
2022/01/11 02:59:11;;;;;;;;;;;-0.40;99.90;;;;;;2089325;28;20331;-69
2022/01/11 03:00:16;;;;;;;;;;;-0.40;99.90;;;;;;2090351;28;20003;-69
2022/01/11 03:01:17;;;;;;;;;;;-0.40;99.90;;;;;;2090540;28;20003;-70
2022/01/11 03:02:17;;;;;;;;;;;-0.40;99.90;;;;;;2090086;28;19913;-69
2022/01/11 03:03:25;;;;;;;;;;;-0.40;99.90;;;;;;2090282;28;19913;-69
2022/01/11 03:04:29;;;;;;;;;;;-0.40;99.90;;;;;;2090189;28;19916;-69
2022/01/11 03:05:30;;;;;;;;;;;-0.40;99.90;;;;;;2090323;28;19913;-69
2022/01/11 03:06:30;;;;;;;;;;;-0.40;99.90;;;;;;2090150;28;19909;-69
2022/01/11 03:07:31;;;;;;;;;;;-0.50;99.90;;;;;;2089579;28;20527;-69
2022/01/11 03:08:33;;;;;;;;;;;-0.50;99.90;;;;;;2090360;28;19962;-69
2022/01/11 03:09:48;;;;;;;;;;;-0.50;99.90;;;;;;2088363;28;19909;-69
2022/01/11 03:10:49;;;;;;;;;;;-0.50;99.90;;;;;;2082792;28;19913;-69
2022/01/11 03:11:49;;;;;;;;;;;-0.50;99.90;;;;;;2082605;28;19913;-69
2022/01/11 03:12:50;;;;;;;;;;;-0.50;99.90;;;;;;2085901;28;19991;-69
2022/01/11 03:13:50;;;;;;;;;;;-0.50;99.90;;;;;;2090067;28;19909;-69
2022/01/11 03:14:51;;;;;;;;;;;-0.50;99.90;;;;;;2090196;28;19909;-69
2022/01/11 03:15:53;;;;;;;;;;;-0.50;99.90;;;;;;2090468;28;19958;-69
2022/01/11 03:16:53;;;;;;;;;;;-0.50;99.90;;;;;;2090198;28;20417;-69
2022/01/11 03:17:54;;;;;;;;;;;-0.60;99.90;;;;;;2090203;28;20337;-69
2022/01/11 03:18:54;;;;;;;;;;;-0.50;99.90;;;;;;2090169;28;19908;-69
2022/01/11 03:19:55;;;;;;;;;;;-0.50;99.90;;;;;;2087688;28;19994;-69
2022/01/11 03:20:55;;;;;;;;;;;-0.50;99.90;;;;;;2090391;28;19913;-69
2022/01/11 03:21:56;;;;;;;;;;;-0.50;99.90;;;;;;2090160;28;20281;-69
2022/01/11 03:22:56;;;;;;;;;;;-0.50;99.90;;;;;;2090176;28;19913;-69
2022/01/11 03:23:57;;;;;;;;;;;-0.50;99.90;;;;;;2089650;28;20639;-69
2022/01/11 03:24:58;;;;;;;;;;;-0.50;99.90;;;;;;2087681;28;20003;-69
2022/01/11 03:26:01;;;;;;;;;;;-0.50;99.90;;;;;;2087096;28;19917;-69
2022/01/11 03:27:05;;;;;;;;;;;-0.60;99.90;;;;;;2090327;28;19916;-69
2022/01/11 03:28:05;;;;;;;;;;;-0.60;99.90;;;;;;2089758;28;19913;-69
2022/01/11 03:29:06;;;;;;;;;;;-0.60;99.90;;;;;;2090270;28;19909;-69
2022/01/11 03:30:07;;;;;;;;;;;-0.60;99.90;;;;;;2084387;28;20297;-69
2022/01/11 03:31:07;;;;;;;;;;;-0.60;99.90;;;;;;2089353;28;19909;-69
2022/01/11 03:32:08;;;;;;;;;;;-0.60;99.90;;;;;;2090129;28;19909;-69
2022/01/11 03:33:09;;;;;;;;;;;-0.60;99.90;;;;;;2090405;28;19913;-69
2022/01/11 03:34:10;;;;;;;;;;;-0.60;99.90;;;;;;2089943;28;19955;-69
2022/01/11 03:35:11;;;;;;;;;;;-0.60;99.90;;;;;;2090438;28;19962;-69
2022/01/11 03:36:12;;;;;;;;;;;-0.60;99.90;;;;;;2090244;28;19950;-69
2022/01/11 03:37:16;;;;;;;;;;;-0.60;99.90;;;;;;2090257;28;19962;-69
2022/01/11 03:38:18;;;;;;;;;;;-0.60;99.90;;;;;;2089914;28;20280;-69
2022/01/11 03:39:18;;;;;;;;;;;-0.60;99.90;;;;;;2082796;28;19913;-69
2022/01/11 03:40:20;;;;;;;;;;;-0.60;99.90;;;;;;2088979;28;20361;-69
2022/01/11 03:41:21;;;;;;;;;;;-0.60;99.90;;;;;;2090365;28;19913;-69
2022/01/11 03:42:21;;;;;;;;;;;-0.60;99.90;;;;;;2090081;28;19913;-69
2022/01/11 03:43:24;;;;;;;;;;;-0.60;99.90;;;;;;2090216;28;20337;-69
2022/01/11 03:44:24;;;;;;;;;;;-0.60;99.90;;;;;;2089972;28;19909;-69
2022/01/11 03:45:26;;;;;;;;;;;-0.60;99.90;;;;;;2090283;28;19913;-69
2022/01/11 03:46:26;;;;;;;;;;;-0.70;99.90;;;;;;2089798;28;19931;-69
2022/01/11 03:47:26;;;;;;;;;;;-0.60;99.90;;;;;;2090201;28;19909;-69
2022/01/11 03:48:27;;;;;;;;;;;-0.60;99.90;;;;;;2090007;28;19913;-69
2022/01/11 03:49:27;;;;;;;;;;;-0.70;99.90;;;;;;2090163;28;19916;-69
2022/01/11 03:50:30;;;;;;;;;;;-0.70;99.90;;;;;;2088749;28;19913;-69
2022/01/11 03:51:34;;;;;;;;;;;-0.70;99.90;;;;;;2090170;28;19916;-69
2022/01/11 03:52:35;;;;;;;;;;;-0.70;99.90;;;;;;2089507;28;19912;-69
2022/01/11 03:53:49;;;;;;;;;;;-0.70;99.90;;;;;;2090075;28;19909;-69
2022/01/11 03:55:02;;;;;;;;;;;-0.70;99.90;;;;;;2090047;28;19916;-69
2022/01/11 03:56:21;;;;;;;;;;;-0.70;99.90;;;;;;2090716;28;20345;-69
2022/01/11 03:57:25;;;;;;;;;;;-0.70;99.90;;;;;;2086923;28;19916;-69
2022/01/11 03:58:26;;;;;;;;;;;-0.70;99.90;;;;;;2091928;28;19915;-69
2022/01/11 03:59:27;;;;;;;;;;;-0.70;99.90;;;;;;2088764;28;20002;-69
2022/01/11 04:00:27;;;;;;;;;;;-0.70;99.90;;;;;;2089908;28;19971;-69
2022/01/11 04:01:28;;;;;;;;;;;-0.70;99.90;;;;;;2094422;28;19956;-69
2022/01/11 04:02:28;;;;;;;;;;;-0.70;99.90;;;;;;2092411;28;20045;-69
2022/01/11 04:03:29;;;;;;;;;;;-0.80;99.90;;;;;;2087293;28;19912;-69
2022/01/11 04:04:29;;;;;;;;;;;-0.80;99.90;;;;;;2091434;28;19916;-69
2022/01/11 04:05:30;;;;;;;;;;;-0.80;99.90;;;;;;2091610;28;19917;-69
2022/01/11 04:06:30;;;;;;;;;;;-0.80;99.90;;;;;;2090160;28;19913;-69
2022/01/11 04:07:31;;;;;;;;;;;-0.80;99.90;;;;;;2091481;28;20345;-69
2022/01/11 04:08:31;;;;;;;;;;;-0.80;99.90;;;;;;2091791;28;19909;-69
2022/01/11 04:09:32;;;;;;;;;;;-0.80;99.90;;;;;;2088681;28;19921;-69
2022/01/11 04:10:32;;;;;;;;;;;-0.80;99.90;;;;;;2082819;28;19915;-69
2022/01/11 04:11:33;;;;;;;;;;;-0.80;99.90;;;;;;2089877;28;19908;-69
2022/01/11 04:12:34;;;;;;;;;;;-0.80;99.90;;;;;;2091451;28;19909;-69
2022/01/11 04:13:34;;;;;;;;;;;-0.80;99.90;;;;;;2091618;28;20307;-69
2022/01/11 04:14:35;;;;;;;;;;;-0.80;99.90;;;;;;2091758;28;19909;-69
2022/01/11 04:15:36;;;;;;;;;;;-0.80;99.90;;;;;;2091591;28;20377;-69
2022/01/11 04:16:36;;;;;;;;;;;-0.80;99.90;;;;;;2091788;28;20272;-69
2022/01/11 04:17:37;;;;;;;;;;;-0.80;99.90;;;;;;2091391;28;19913;-69
2022/01/11 04:18:37;;;;;;;;;;;-0.80;99.90;;;;;;2091688;28;19909;-69
2022/01/11 04:19:37;;;;;;;;;;;-0.80;99.90;;;;;;2085610;28;19924;-69
2022/01/11 04:20:38;;;;;;;;;;;-0.80;99.90;;;;;;2091422;28;19971;-69
2022/01/11 04:21:38;;;;;;;;;;;-0.80;99.90;;;;;;2091404;28;20270;-69
2022/01/11 04:22:39;;;;;;;;;;;-0.80;99.90;;;;;;2091611;28;19919;-69
2022/01/11 04:23:39;;;;;;;;;;;-0.80;99.90;;;;;;2091296;28;20280;-70
2022/01/11 04:24:40;;;;;;;;;;;-0.80;99.90;;;;;;2090983;28;19913;-69
2022/01/11 04:25:40;;;;;;;;;;;-0.90;99.90;;;;;;2090757;28;19909;-69
2022/01/11 04:26:41;;;;;;;;;;;-0.90;99.90;;;;;;2091739;28;20003;-69
2022/01/11 04:27:42;;;;;;;;;;;-0.90;99.90;;;;;;2090836;28;19967;-69
2022/01/11 04:28:42;;;;;;;;;;;-0.90;99.90;;;;;;2090416;28;19912;-69
2022/01/11 04:29:42;;;;;;;;;;;-0.90;99.90;;;;;;2091227;28;19909;-69
2022/01/11 04:30:43;;;;;;;;;;;-0.90;99.90;;;;;;2090960;28;19939;-69
2022/01/11 04:31:44;;;;;;;;;;;-0.90;99.90;;;;;;2087603;28;20351;-69
2022/01/11 04:32:44;;;;;;;;;;;-0.90;99.90;;;;;;2091306;28;19913;-69
2022/01/11 04:33:45;;;;;;;;;;;-0.90;99.90;;;;;;2088784;28;19916;-69
2022/01/11 04:34:46;;;;;;;;;;;-0.90;99.90;;;;;;2090756;28;19913;-69
2022/01/11 04:35:48;;;;;;;;;;;-0.90;99.90;;;;;;2091289;28;20429;-69
2022/01/11 04:36:49;;;;;;;;;;;-0.90;99.90;;;;;;2090977;28;19913;-69
2022/01/11 04:37:50;;;;;;;;;;;-0.90;99.90;;;;;;2091520;28;20349;-69
2022/01/11 04:38:51;;;;;;;;;;;-1.00;99.90;;;;;;2091350;28;19915;-69
2022/01/11 04:39:51;;;;;;;;;;;-0.90;99.90;;;;;;2091470;28;20383;-69
2022/01/11 04:40:52;;;;;;;;;;;-0.90;99.90;;;;;;2091356;28;19928;-69
2022/01/11 04:41:53;;;;;;;;;;;-0.90;99.90;;;;;;2090477;28;19917;-69
2022/01/11 04:42:53;;;;;;;;;;;-0.90;99.90;;;;;;2083152;28;19913;-69
2022/01/11 04:43:54;;;;;;;;;;;-1.00;99.90;;;;;;2089109;28;19944;-69
2022/01/11 04:44:54;;;;;;;;;;;-1.00;99.90;;;;;;2091137;28;20391;-69
2022/01/11 04:45:55;;;;;;;;;;;-1.00;99.90;;;;;;2091517;28;19909;-69
2022/01/11 04:46:55;;;;;;;;;;;-1.00;99.90;;;;;;2091301;28;19917;-69
2022/01/11 04:47:56;;;;;;;;;;;-1.00;99.90;;;;;;2085532;28;19917;-69
2022/01/11 04:48:59;;;;;;;;;;;-0.90;99.90;;;;;;2090759;28;19913;-69
2022/01/11 04:50:00;;;;;;;;;;;-1.00;99.90;;;;;;2091628;28;19917;-69
2022/01/11 04:51:01;;;;;;;;;;;-1.00;99.90;;;;;;2091286;28;19909;-69
2022/01/11 04:52:02;;;;;;;;;;;-1.00;99.90;;;;;;2090857;28;19913;-69
2022/01/11 04:53:03;;;;;;;;;;;-1.00;99.90;;;;;;2091207;28;19952;-69
2022/01/11 04:54:03;;;;;;;;;;;-1.00;99.90;;;;;;2091379;28;19916;-69
2022/01/11 04:55:04;;;;;;;;;;;-1.00;99.90;;;;;;2091363;28;19935;-69
2022/01/11 04:56:05;;;;;;;;;;;-1.00;99.90;;;;;;2091362;28;19955;-69
2022/01/11 04:57:06;;;;;;;;;;;-1.00;99.90;;;;;;2090698;28;19909;-69
2022/01/11 04:58:06;;;;;;;;;;;-1.00;99.90;;;;;;2091185;28;19917;-69
2022/01/11 04:59:07;;;;;;;;;;;-1.00;99.90;;;;;;2090627;28;19916;-69
2022/01/11 05:00:08;;;;;;;;;;;-1.00;99.90;;;;;;2087680;28;19959;-69
2022/01/11 05:01:08;;;;;;;;;;;-1.00;99.90;;;;;;2089262;28;20377;-68
2022/01/11 05:02:08;;;;;;;;;;;-1.00;99.90;;;;;;2087946;28;20009;-69
2022/01/11 05:03:09;;;;;;;;;;;-1.00;99.90;;;;;;2087470;28;19912;-69
2022/01/11 05:04:09;;;;;;;;;;;-1.00;99.90;;;;;;2081151;28;19913;-69
2022/01/11 05:05:10;;;;;;;;;;;-1.00;99.90;;;;;;2089422;28;20280;-69
2022/01/11 05:06:11;;;;;;;;;;;-1.00;99.90;;;;;;2090170;28;19916;-69
2022/01/11 05:07:11;;;;;;;;;;;-1.00;99.90;;;;;;2089977;28;19944;-69
2022/01/11 05:08:12;;;;;;;;;;;-1.00;99.90;;;;;;2088481;28;19913;-69
2022/01/11 05:09:12;;;;;;;;;;;-1.00;99.90;;;;;;2089817;28;19913;-69
2022/01/11 05:10:13;;;;;;;;;;;-1.00;99.90;;;;;;2089144;28;20384;-69
2022/01/11 05:11:13;;;;;;;;;;;-1.00;99.90;;;;;;2085929;28;19909;-69
2022/01/11 05:12:14;;;;;;;;;;;-1.00;99.90;;;;;;2086622;28;19924;-69
2022/01/11 05:13:16;;;;;;;;;;;-1.00;99.90;;;;;;2088379;28;19912;-69
2022/01/11 05:14:16;;;;;;;;;;;-1.00;99.90;;;;;;2088769;28;19916;-69
2022/01/11 05:15:17;;;;;;;;;;;-1.00;99.90;;;;;;2085489;28;19960;-69
2022/01/11 05:16:17;;;;;;;;;;;-1.00;99.90;;;;;;2087417;28;19974;-69
2022/01/11 05:17:18;;;;;;;;;;;-1.00;99.90;;;;;;2089843;28;19959;-69
2022/01/11 05:18:18;;;;;;;;;;;-1.00;99.90;;;;;;2089678;28;20337;-69
2022/01/11 05:19:19;;;;;;;;;;;-1.00;99.90;;;;;;2089539;28;19964;-69
2022/01/11 05:20:19;;;;;;;;;;;-1.00;99.90;;;;;;2089885;28;19916;-69
2022/01/11 05:21:20;;;;;;;;;;;-1.00;99.90;;;;;;2089736;28;19947;-69
2022/01/11 05:22:20;;;;;;;;;;;-1.00;99.90;;;;;;2085097;28;19913;-69
2022/01/11 05:23:20;;;;;;;;;;;-1.00;99.90;;;;;;2089927;28;19943;-69
2022/01/11 05:24:21;;;;;;;;;;;-1.00;99.90;;;;;;2088886;28;19947;-69
2022/01/11 05:25:21;;;;;;;;;;;-1.00;99.90;;;;;;2090028;28;19995;-69
2022/01/11 05:26:22;;;;;;;;;;;-1.00;99.90;;;;;;2083310;28;19921;-69
2022/01/11 05:27:23;;;;;;;;;;;-1.00;99.90;;;;;;2088706;28;19909;-69
2022/01/11 05:28:23;;;;;;;;;;;-1.10;99.90;;;;;;2085066;28;19942;-69
2022/01/11 05:29:24;;;;;;;;;;;-1.10;99.90;;;;;;2088914;28;20431;-69
2022/01/11 05:30:25;;;;;;;;;;;-1.00;99.90;;;;;;2088866;28;20008;-69
2022/01/11 05:31:25;;;;;;;;;;;-1.10;99.90;;;;;;2089363;28;20035;-69
2022/01/11 05:32:26;;;;;;;;;;;-1.10;99.90;;;;;;2088709;28;19917;-69
2022/01/11 05:33:27;;;;;;;;;;;-1.10;99.90;;;;;;2089422;28;19916;-69
2022/01/11 05:34:27;;;;;;;;;;;-1.10;99.90;;;;;;2089362;28;20292;-69
2022/01/11 05:35:28;;;;;;;;;;;-1.10;99.90;;;;;;2089669;28;20423;-69
2022/01/11 05:36:28;;;;;;;;;;;-1.10;99.90;;;;;;2089614;28;20195;-69
2022/01/11 05:37:28;;;;;;;;;;;-1.10;99.90;;;;;;2089431;28;19944;-69
2022/01/11 05:38:29;;;;;;;;;;;-1.10;99.90;;;;;;2089567;28;19913;-69
2022/01/11 05:39:29;;;;;;;;;;;-1.10;99.90;;;;;;2089523;28;20015;-69
2022/01/11 05:40:30;;;;;;;;;;;-1.10;99.90;;;;;;2088951;28;19912;-69
2022/01/11 05:41:31;;;;;;;;;;;-1.10;99.90;;;;;;2088446;28;20339;-69
2022/01/11 05:42:31;;;;;;;;;;;-1.10;99.90;;;;;;2088876;28;19913;-69
2022/01/11 05:43:32;;;;;;;;;;;-1.10;99.90;;;;;;2088900;28;19912;-69
2022/01/11 05:44:33;;;;;;;;;;;-1.10;99.90;;;;;;2088601;28;19909;-69
2022/01/11 05:45:34;;;;;;;;;;;-1.10;99.90;;;;;;2088977;28;20411;-69
2022/01/11 05:46:34;;;;;;;;;;;-1.10;99.90;;;;;;2087410;28;20602;-69
2022/01/11 05:47:35;;;;;;;;;;;-1.10;99.90;;;;;;2086712;28;19912;-69
2022/01/11 05:48:35;;;;;;;;;;;-1.10;99.90;;;;;;2087866;28;19947;-69
2022/01/11 05:49:35;;;;;;;;;;;-1.10;99.90;;;;;;2088496;28;19999;-69
2022/01/11 05:50:38;;;;;;;;;;;-1.10;99.90;;;;;;2087237;28;19995;-69
2022/01/11 05:51:39;;;;;;;;;;;-1.10;99.90;;;;;;2084869;28;19913;-69
2022/01/11 05:52:39;;;;;;;;;;;-1.10;99.90;;;;;;2088864;28;19952;-69
2022/01/11 05:53:39;;;;;;;;;;;-1.10;99.90;;;;;;2086232;28;19909;-69
2022/01/11 05:54:40;;;;;;;;;;;-1.10;99.90;;;;;;2083473;28;19916;-69
2022/01/11 05:55:41;;;;;;;;;;;-1.20;99.90;;;;;;2088305;28;19980;-69
2022/01/11 05:56:41;;;;;;;;;;;-1.20;99.90;;;;;;2087706;28;19955;-70
2022/01/11 05:57:42;;;;;;;;;;;-1.20;99.90;;;;;;2085924;28;19943;-69
2022/01/11 05:58:43;;;;;;;;;;;-1.20;99.90;;;;;;2083210;28;19913;-69
2022/01/11 05:59:43;;;;;;;;;;;-1.20;99.90;;;;;;2082875;28;19924;-69